KVGT/VGT METAR and TAF weather

Enter ICAO airport designator
Station Type Date Time Source
KVGT METAR 2020/01/23 08:53 UTC NOAA

KVGT 230853Z AUTO 30006KT 10SM CLR 07/02 A3021 RMK AO2 SLP247 T00720017 50003


Station Type Date Time Source
KVGT Decoded METAR 2020/01/23 08:53 UTC NOAA

NORTH LAS VEGAS, NV, United States (KVGT) 36-12N 115-11W
Jan 23, 2020 - 03:53 AM EST / 2020.01.23 0853 UTC
Wind: from the WNW (300 degrees) at 7 MPH (6 KT):0
Visibility: 10 mile(s):0
Sky conditions: clear
Temperature: 45.0 F (7.2 C)
Dew Point: 35.1 F (1.7 C)
Relative Humidity: 68%
Pressure (altimeter): 30.21 in. Hg (1023 hPa)
Pressure tendency: 0.01 inches (0.3 hPa) higher than three hours ago
ob: KVGT 230853Z AUTO 30006KT 10SM CLR 07/02 A3021 RMK AO2 SLP247 T00720017 50003
cycle: 9

Station Type Date Time Source
KVGT TAF 2020/01/23 06:28 UTC NOAA

TAF KVGT 230526Z 2306/2406 32006KT P6SM FEW250
FM231600 VRB03KT P6SM FEW250
FM232000 10005KT P6SM SCT250
FM240300 32006KT P6SM BKN250

Example: see airport list